Time;durP1;ratioP1;P1;durP2;ratioP2;P2;SDS_P1;SDS_P2;PMS_P1;PMS_P2;Temp;Humidity;BMP_temperature;BMP_pressure;BME280_temperature;BME280_humidity;BME280_pressure;Samples;Min_cycle;Max_cycle;Signal;HPM_P1;HPM_P2
2021/01/14 00:00:24;;;;;;;0.80;0.70;;;;;;;2.92;nan;96202.50;4964920;28;20325;-70
2021/01/14 00:02:52;;;;;;;1.00;0.82;;;;;;;2.82;nan;96196.91;4964791;28;20194;-70
2021/01/14 00:05:19;;;;;;;1.15;0.80;;;;;;;2.90;nan;96214.56;4962926;28;20760;-70
2021/01/14 00:07:46;;;;;;;1.77;0.80;;;;;;;2.86;nan;96201.00;4962533;28;20246;-69
2021/01/14 00:10:13;;;;;;;1.98;0.98;;;;;;;2.98;nan;96218.53;4964859;28;20349;-70
2021/01/14 00:12:41;;;;;;;2.20;1.10;;;;;;;3.03;nan;96224.31;4961944;28;20833;-70
2021/01/14 00:15:11;;;;;;;1.80;0.90;;;;;;;3.09;nan;96216.38;4969457;28;20304;-69
2021/01/14 00:17:38;;;;;;;1.00;0.85;;;;;;;3.11;nan;96219.75;4967638;28;20234;-70
2021/01/14 00:20:09;;;;;;;1.40;1.20;;;;;;;3.13;nan;96228.22;4967349;28;20747;-70
2021/01/14 00:22:35;;;;;;;1.75;1.30;;;;;;;3.12;nan;96241.13;4967355;28;20194;-71
2021/01/14 00:25:04;;;;;;;2.10;1.67;;;;;;;3.15;nan;96231.56;4966162;28;20630;-70
2021/01/14 00:27:30;;;;;;;1.90;1.52;;;;;;;3.05;nan;96203.69;4965973;28;20261;-70
2021/01/14 00:29:57;;;;;;;1.52;1.40;;;;;;;3.18;nan;96213.47;4959276;28;20226;-70
2021/01/14 00:32:24;;;;;;;2.38;1.55;;;;;;;3.01;nan;96192.69;4964861;28;20195;-70
2021/01/14 00:34:51;;;;;;;2.15;1.58;;;;;;;3.15;nan;96216.13;4966032;28;20314;-70
2021/01/14 00:40:04;;;;;;;2.45;1.75;;;;;;;3.14;nan;96199.03;4962580;28;20699;-71
2021/01/14 00:42:32;;;;;;;2.72;1.67;;;;;;;3.17;nan;96193.75;4966962;28;20190;-70
2021/01/14 00:45:00;;;;;;;3.67;2.55;;;;;;;3.16;nan;96176.66;4963980;28;20563;-71
2021/01/14 00:47:27;;;;;;;2.17;1.75;;;;;;;3.20;nan;96197.94;4964497;28;20937;-69
2021/01/14 00:49:54;;;;;;;2.97;2.17;;;;;;;3.26;nan;96224.28;4962002;28;20748;-69
2021/01/14 00:52:22;;;;;;;3.70;2.35;;;;;;;3.36;nan;96241.00;4962764;28;20689;-70
2021/01/14 00:54:48;;;;;;;2.40;1.73;;;;;;;3.31;nan;96245.47;4962179;28;20214;-69
2021/01/14 00:57:15;;;;;;;2.00;1.52;;;;;;;3.24;nan;96246.63;4964953;28;20281;-71
2021/01/14 00:59:42;;;;;;;2.70;2.08;;;;;;;3.25;nan;96257.75;4965040;28;20310;-69
2021/01/14 01:02:09;;;;;;;1.83;1.52;;;;;;;3.24;nan;96263.78;4965678;28;20708;-69
2021/01/14 01:04:36;;;;;;;2.42;1.58;;;;;;;3.17;nan;96252.88;4963166;28;20595;-70
2021/01/14 01:07:02;;;;;;;3.58;1.80;;;;;;;3.11;nan;96258.28;4964566;28;20798;-69
2021/01/14 01:09:31;;;;;;;3.05;1.75;;;;;;;3.06;nan;96262.75;4965609;28;20652;-69
2021/01/14 01:11:58;;;;;;;2.42;1.58;;;;;;;3.05;nan;96261.09;4967827;28;20504;-69
2021/01/14 01:14:25;;;;;;;1.75;1.30;;;;;;;2.90;nan;96261.69;4962779;28;20646;-68
2021/01/14 01:16:58;;;;;;;2.80;1.30;;;;;;;2.77;nan;96268.16;4966011;28;20230;-69
2021/01/14 01:19:25;;;;;;;2.00;1.08;;;;;;;2.80;nan;96267.22;4960636;28;20608;-69
2021/01/14 01:21:52;;;;;;;2.70;1.40;;;;;;;2.77;nan;96275.88;4960436;28;20681;-70
2021/01/14 01:24:18;;;;;;;2.22;1.40;;;;;;;2.75;nan;96271.69;4955794;28;20268;-69
2021/01/14 01:26:52;;;;;;;1.65;1.30;;;;;;;2.79;nan;96261.22;4958906;28;20292;-69
2021/01/14 01:29:20;;;;;;;1.20;0.95;;;;;;;2.85;nan;96263.56;4957171;28;20214;-69
2021/01/14 01:31:50;;;;;;;2.08;1.27;;;;;;;2.81;nan;96264.56;4963253;28;20576;-68
2021/01/14 01:34:17;;;;;;;2.78;1.25;;;;;;;2.80;nan;96272.34;4963774;28;20227;-69
2021/01/14 01:36:49;;;;;;;2.05;1.50;;;;;;;2.78;nan;96274.97;4961601;28;20326;-69
2021/01/14 01:39:16;;;;;;;5.22;1.55;;;;;;;2.83;nan;96267.09;4965432;28;20771;-69
2021/01/14 01:41:43;;;;;;;1.30;1.10;;;;;;;2.78;nan;96269.84;4962566;28;20686;-69
2021/01/14 01:44:10;;;;;;;1.73;1.50;;;;;;;2.67;nan;96269.41;4961730;28;20721;-68
2021/01/14 01:46:38;;;;;;;1.42;1.25;;;;;;;2.70;nan;96271.84;4962426;28;20531;-69
2021/01/14 01:49:05;;;;;;;2.17;1.23;;;;;;;2.68;nan;96273.66;4966477;28;20252;-69
2021/01/14 01:51:35;;;;;;;2.03;1.45;;;;;;;2.73;nan;96270.91;4960910;28;20285;-69
2021/01/14 01:54:03;;;;;;;2.75;1.20;;;;;;;2.68;nan;96276.22;4965142;28;20764;-69
2021/01/14 01:56:30;;;;;;;6.53;1.40;;;;;;;2.67;nan;96266.84;4962926;28;20209;-69
2021/01/14 01:58:58;;;;;;;3.15;1.77;;;;;;;2.67;nan;96259.13;4959815;28;20309;-69
2021/01/14 02:01:27;;;;;;;1.92;1.50;;;;;;;2.66;nan;96262.56;4954998;28;20620;-71
2021/01/14 02:03:54;;;;;;;2.13;1.20;;;;;;;2.62;nan;96265.31;4959912;28;20249;-70
2021/01/14 02:06:22;;;;;;;1.80;1.00;;;;;;;2.56;nan;96286.94;4960452;28;20245;-69
2021/01/14 02:08:53;;;;;;;2.10;1.40;;;;;;;2.52;nan;96298.22;4962104;28;20189;-69
2021/01/14 02:11:28;;;;;;;3.58;1.65;;;;;;;2.47;nan;96266.72;4960673;28;20281;-68
2021/01/14 02:14:07;;;;;;;3.80;1.27;;;;;;;2.56;nan;96281.78;4965170;28;20375;-70
2021/01/14 02:16:37;;;;;;;3.72;2.10;;;;;;;2.54;nan;96273.31;4961182;28;20222;-69
2021/01/14 02:19:10;;;;;;;2.33;1.80;;;;;;;2.51;nan;96286.25;4968099;28;20222;-69
2021/01/14 02:21:38;;;;;;;2.28;1.50;;;;;;;2.51;nan;96291.38;4968947;28;20209;-69
2021/01/14 02:24:16;;;;;;;2.10;1.70;;;;;;;2.47;nan;96282.13;4965361;28;20592;-68
2021/01/14 02:26:45;;;;;;;2.15;1.50;;;;;;;2.54;nan;96299.00;4960378;28;20295;-68
2021/01/14 02:29:13;;;;;;;2.25;1.65;;;;;;;2.52;nan;96295.66;4971700;28;20295;-69
2021/01/14 02:31:40;;;;;;;2.42;1.40;;;;;;;2.55;nan;96308.38;4960715;28;20714;-69
2021/01/14 02:34:07;;;;;;;2.35;1.48;;;;;;;2.49;nan;96303.44;4962344;28;20602;-69
2021/01/14 02:36:34;;;;;;;2.95;1.60;;;;;;;2.52;nan;96302.50;4961643;28;20301;-68
2021/01/14 02:39:01;;;;;;;2.63;1.60;;;;;;;2.52;nan;96312.78;4960327;28;20662;-68
2021/01/14 02:41:28;;;;;;;3.15;1.70;;;;;;;2.48;nan;96306.91;4963926;28;20613;-68
2021/01/14 02:43:56;;;;;;;3.00;1.90;;;;;;;2.52;nan;96305.06;4966963;28;20206;-69
2021/01/14 02:46:23;;;;;;;3.78;2.13;;;;;;;2.58;nan;96310.81;4959164;28;20226;-69
2021/01/14 02:48:58;;;;;;;3.63;2.08;;;;;;;2.59;nan;96309.09;4963354;28;20253;-69
2021/01/14 02:51:29;;;;;;;2.50;1.75;;;;;;;2.49;nan;96305.19;4962826;28;20268;-68
2021/01/14 02:53:58;;;;;;;7.05;1.70;;;;;;;2.54;nan;96306.69;4960720;28;20759;-69
2021/01/14 02:56:33;;;;;;;3.78;2.30;;;;;;;2.51;nan;96296.50;4962571;28;20617;-68
2021/01/14 02:59:10;;;;;;;4.07;1.95;;;;;;;2.21;nan;96246.25;4966345;28;20763;-68
2021/01/14 03:01:37;;;;;;;5.85;2.33;;;;;;;2.58;nan;96305.69;4964226;28;20633;-68
2021/01/14 03:04:04;;;;;;;2.58;1.77;;;;;;;2.46;nan;96290.72;4962329;28;20704;-70
2021/01/14 03:06:31;;;;;;;6.13;2.42;;;;;;;2.49;nan;96320.59;4968424;28;20225;-68
2021/01/14 03:08:58;;;;;;;5.35;1.88;;;;;;;2.49;nan;96316.28;4960547;28;20226;-69
2021/01/14 03:11:26;;;;;;;3.08;1.80;;;;;;;2.52;nan;96313.63;4956565;28;20318;-68
2021/01/14 03:13:53;;;;;;;3.47;2.00;;;;;;;2.57;nan;96311.72;4957244;28;20227;-68
2021/01/14 03:16:20;;;;;;;8.43;2.05;;;;;;;2.52;nan;96321.34;4963417;28;20542;-68
2021/01/14 03:18:48;;;;;;;3.78;2.03;;;;;;;2.43;nan;96321.63;4964632;28;20225;-69
2021/01/14 03:21:19;;;;;;;5.78;2.40;;;;;;;2.45;nan;96325.00;4966282;28;20665;-68
2021/01/14 03:23:46;;;;;;;3.22;2.05;;;;;;;2.42;nan;96326.84;4964300;28;20294;-68
2021/01/14 03:26:13;;;;;;;6.43;2.10;;;;;;;2.41;nan;96320.00;4968092;28;20383;-68
2021/01/14 03:28:40;;;;;;;4.85;2.15;;;;;;;2.37;nan;96318.44;4964076;28;20737;-69
2021/01/14 03:31:10;;;;;;;2.40;1.60;;;;;;;2.40;nan;96313.19;4970603;28;20495;-69
2021/01/14 03:33:38;;;;;;;3.42;1.65;;;;;;;2.33;nan;96320.28;4965348;28;20298;-68
2021/01/14 03:36:06;;;;;;;3.50;2.20;;;;;;;2.32;nan;96330.59;4965131;28;20694;-68
2021/01/14 03:38:35;;;;;;;3.63;2.15;;;;;;;2.30;nan;96333.25;4966527;28;20290;-69
2021/01/14 03:41:03;;;;;;;4.28;2.05;;;;;;;2.24;nan;96328.31;4970396;28;20245;-68
2021/01/14 03:43:30;;;;;;;6.85;2.67;;;;;;;2.22;nan;96332.63;4968857;28;20242;-69
2021/01/14 03:45:57;;;;;;;5.03;2.05;;;;;;;2.26;nan;96344.47;4967133;28;20576;-68
2021/01/14 03:48:24;;;;;;;3.72;2.00;;;;;;;2.29;nan;96343.56;4965768;28;20664;-69
2021/01/14 03:50:52;;;;;;;3.45;1.98;;;;;;;2.32;nan;96344.28;4966355;28;20837;-69
2021/01/14 03:53:18;;;;;;;3.95;2.25;;;;;;;2.35;nan;96346.72;4963432;28;20202;-70
2021/01/14 03:55:45;;;;;;;4.32;2.38;;;;;;;2.32;nan;96349.41;4963802;28;20316;-69
2021/01/14 03:58:12;;;;;;;7.88;2.25;;;;;;;2.35;nan;96349.31;4964696;28;20190;-69
2021/01/14 04:00:39;;;;;;;4.75;2.40;;;;;;;2.33;nan;96339.97;4965082;28;20226;-69
2021/01/14 04:03:06;;;;;;;5.35;3.00;;;;;;;2.29;nan;96339.22;4967552;28;20233;-69
2021/01/14 04:05:33;;;;;;;4.55;2.28;;;;;;;2.20;nan;96339.56;4962714;28;20225;-69
2021/01/14 04:08:01;;;;;;;3.88;2.20;;;;;;;2.16;nan;96340.56;4963457;28;20309;-71
2021/01/14 04:10:28;;;;;;;6.10;2.47;;;;;;;2.29;nan;96341.81;4968581;28;20333;-70
2021/01/14 04:12:55;;;;;;;4.97;2.75;;;;;;;2.16;nan;96348.25;4966361;28;20613;-69
2021/01/14 04:15:21;;;;;;;4.85;2.88;;;;;;;2.08;nan;96341.69;4968508;28;20313;-69
2021/01/14 04:17:48;;;;;;;6.18;1.95;;;;;;;2.10;nan;96351.03;4963877;28;20686;-71
2021/01/14 04:20:15;;;;;;;5.80;2.38;;;;;;;2.09;nan;96351.06;4965572;28;20367;-70
2021/01/14 04:22:42;;;;;;;6.15;2.38;;;;;;;2.14;nan;96362.84;4965116;28;20201;-68
2021/01/14 04:25:11;;;;;;;4.15;2.33;;;;;;;2.25;nan;96375.34;4963758;28;20316;-68
2021/01/14 04:27:41;;;;;;;4.63;2.55;;;;;;;2.34;nan;96373.31;4965710;28;20685;-69
2021/01/14 04:30:09;;;;;;;6.10;2.03;;;;;;;2.30;nan;96370.88;4964819;28;20759;-69
2021/01/14 04:32:36;;;;;;;3.88;2.50;;;;;;;2.29;nan;96361.53;4967551;28;20521;-69
2021/01/14 04:35:03;;;;;;;15.18;3.03;;;;;;;2.30;nan;96364.03;4962488;28;20321;-69
2021/01/14 04:37:32;;;;;;;5.13;2.15;;;;;;;2.24;nan;96365.97;4966221;28;20200;-69
2021/01/14 04:39:58;;;;;;;3.35;2.10;;;;;;;2.13;nan;96379.16;4961063;28;20670;-69
2021/01/14 04:42:29;;;;;;;6.18;3.33;;;;;;;2.13;nan;96374.00;4963600;28;20223;-68
2021/01/14 04:44:56;;;;;;;3.95;2.30;;;;;;;2.07;nan;96369.06;4964624;28;20619;-69
2021/01/14 04:47:29;;;;;;;4.57;2.45;;;;;;;2.02;nan;96355.56;4960227;28;20214;-69
2021/01/14 04:49:57;;;;;;;6.15;3.03;;;;;;;1.98;nan;96363.44;4963764;28;20225;-68
2021/01/14 04:52:27;;;;;;;7.60;3.03;;;;;;;1.99;nan;96371.06;4960861;28;20700;-67
2021/01/14 04:54:58;;;;;;;4.60;3.08;;;;;;;2.01;nan;96363.31;4961049;28;20634;-68
2021/01/14 04:57:33;;;;;;;5.93;2.90;;;;;;;2.05;nan;96355.47;4962875;28;20605;-70
2021/01/14 05:00:02;;;;;;;5.25;3.17;;;;;;;2.09;nan;96369.88;4965681;28;20256;-69
2021/01/14 05:02:40;;;;;;;4.38;2.08;;;;;;;2.12;nan;96379.19;4962310;28;20202;-68
2021/01/14 05:05:12;;;;;;;8.45;2.83;;;;;;;2.15;nan;96379.91;4965035;28;20244;-67
2021/01/14 05:07:46;;;;;;;10.25;4.97;;;;;;;2.12;nan;96386.88;4964968;28;20645;-68
2021/01/14 05:10:22;;;;;;;4.72;3.00;;;;;;;2.05;nan;96376.00;4971607;28;20221;-68
2021/01/14 05:12:55;;;;;;;4.80;2.95;;;;;;;2.07;nan;96389.59;4961967;28;20288;-69
2021/01/14 05:15:25;;;;;;;4.60;2.92;;;;;;;2.20;nan;96387.50;4964771;28;20566;-69
2021/01/14 05:17:52;;;;;;;8.57;3.25;;;;;;;2.21;nan;96395.13;4961677;28;20716;-69
2021/01/14 05:20:19;;;;;;;6.38;3.00;;;;;;;2.16;nan;96398.75;4964048;28;20248;-68
2021/01/14 05:22:48;;;;;;;9.20;3.78;;;;;;;2.12;nan;96392.88;4961890;28;20637;-68
2021/01/14 05:25:15;;;;;;;9.85;3.20;;;;;;;2.11;nan;96395.47;4958998;28;20747;-69
2021/01/14 05:27:41;;;;;;;4.35;2.80;;;;;;;2.10;nan;96404.06;4960787;28;20667;-69
2021/01/14 05:30:11;;;;;;;9.68;3.30;;;;;;;2.10;nan;96404.91;4961147;28;21025;-68
2021/01/14 05:32:39;;;;;;;4.85;3.30;;;;;;;2.10;nan;96407.50;4970071;28;20282;-69
2021/01/14 05:35:08;;;;;;;7.45;3.47;;;;;;;2.12;nan;96410.84;4963609;28;20313;-69
2021/01/14 05:37:36;;;;;;;8.60;4.00;;;;;;;2.16;nan;96420.13;4962592;28;20273;-69
2021/01/14 05:40:05;;;;;;;4.85;2.83;;;;;;;2.07;nan;96409.31;4965664;28;20761;-68
2021/01/14 05:42:32;;;;;;;8.38;3.10;;;;;;;2.11;nan;96422.00;4964775;28;20632;-68
2021/01/14 05:45:00;;;;;;;4.55;2.70;;;;;;;2.05;nan;96417.06;4961244;28;20582;-69
2021/01/14 05:47:30;;;;;;;5.43;3.30;;;;;;;2.09;nan;96422.94;4960686;28;20226;-69
2021/01/14 05:49:59;;;;;;;5.85;2.75;;;;;;;2.11;nan;96422.00;4962588;28;20277;-68
2021/01/14 05:52:27;;;;;;;6.75;3.03;;;;;;;2.22;nan;96427.59;4967366;28;20272;-68
2021/01/14 05:54:59;;;;;;;5.60;3.40;;;;;;;2.23;nan;96426.75;4960211;28;20305;-68
2021/01/14 05:57:31;;;;;;;8.48;2.75;;;;;;;2.24;nan;96420.72;4961168;28;20282;-68
2021/01/14 06:00:00;;;;;;;4.70;2.70;;;;;;;2.17;nan;96424.38;4962235;28;20749;-69
2021/01/14 06:02:30;;;;;;;5.13;3.03;;;;;;;2.17;nan;96432.06;4965272;28;20740;-68
2021/01/14 06:04:59;;;;;;;4.63;2.35;;;;;;;2.18;nan;96428.63;4961810;28;20325;-68
2021/01/14 06:07:39;;;;;;;4.15;3.00;;;;;;;2.21;nan;96433.63;4959958;28;20333;-69
2021/01/14 06:10:07;;;;;;;7.28;2.90;;;;;;;2.15;nan;96438.13;4957135;28;20320;-69
2021/01/14 06:12:34;;;;;;;2.80;2.00;;;;;;;2.11;nan;96427.13;4959385;28;20209;-69
2021/01/14 06:15:16;;;;;;;3.58;2.38;;;;;;;2.18;nan;96444.00;4964076;28;20217;-69
2021/01/14 06:17:44;;;;;;;5.03;3.22;;;;;;;2.15;nan;96445.84;4965450;28;20261;-67
2021/01/14 06:20:12;;;;;;;3.95;2.70;;;;;;;2.13;nan;96451.00;4962169;28;20328;-67
2021/01/14 06:22:40;;;;;;;4.40;2.53;;;;;;;2.15;nan;96451.78;4964714;28;20656;-68
2021/01/14 06:25:13;;;;;;;6.90;2.90;;;;;;;2.23;nan;96456.69;4959935;28;20222;-68
2021/01/14 06:27:54;;;;;;;6.03;3.35;;;;;;;2.27;nan;96464.25;4961507;28;20317;-69
2021/01/14 06:30:23;;;;;;;4.90;3.80;;;;;;;2.27;nan;96453.97;4959441;28;20234;-69
2021/01/14 06:33:01;;;;;;;4.95;2.88;;;;;;;2.23;nan;96462.69;4964405;28;20269;-68
2021/01/14 06:35:28;;;;;;;6.03;3.35;;;;;;;2.25;nan;96471.16;4963910;28;20230;-68
2021/01/14 06:38:02;;;;;;;5.90;3.17;;;;;;;2.27;nan;96478.81;4962183;28;20387;-69
2021/01/14 06:40:29;;;;;;;7.90;3.20;;;;;;;2.25;nan;96475.44;4962712;28;20257;-69
2021/01/14 06:42:58;;;;;;;10.77;3.50;;;;;;;2.30;nan;96477.00;4967503;28;20690;-69
2021/01/14 06:45:48;;;;;;;9.05;4.82;;;;;;;2.27;nan;96474.50;4964235;28;20627;-70
2021/01/14 06:48:22;;;;;;;12.90;6.15;;;;;;;2.19;nan;96473.06;4959219;28;20265;-71
2021/01/14 06:50:49;;;;;;;4.25;3.40;;;;;;;2.07;nan;96476.03;4966185;28;20296;-69
2021/01/14 06:53:27;;;;;;;4.50;2.65;;;;;;;2.14;nan;96473.22;4965213;28;20198;-69
2021/01/14 06:55:58;;;;;;;7.15;3.72;;;;;;;2.16;nan;96486.88;4967821;28;20658;-69
2021/01/14 06:58:25;;;;;;;6.00;3.42;;;;;;;2.12;nan;96492.97;4958832;28;20614;-70
2021/01/14 07:01:01;;;;;;;5.47;3.05;;;;;;;2.17;nan;96488.53;4964802;28;20353;-70
2021/01/14 07:03:45;;;;;;;5.65;2.55;;;;;;;2.06;nan;96475.19;4960038;28;20257;-70
2021/01/14 07:06:20;;;;;;;6.75;2.90;;;;;;;1.90;nan;96473.97;4971188;28;20582;-70
2021/01/14 07:09:03;;;;;;;10.57;3.72;;;;;;;1.73;nan;96481.34;4964335;28;20666;-68
2021/01/14 07:11:36;;;;;;;7.00;3.00;;;;;;;1.72;nan;96489.94;4966093;28;20220;-70
2021/01/14 07:14:12;;;;;;;4.47;2.72;;;;;;;1.81;nan;96492.22;4966911;28;20233;-69
2021/01/14 07:16:42;;;;;;;3.17;2.17;;;;;;;1.60;nan;96454.38;4966804;28;20665;-69
2021/01/14 07:19:10;;;;;;;4.50;2.40;;;;;;;1.86;nan;96480.06;4964596;28;20436;-69
2021/01/14 07:21:38;;;;;;;9.82;2.17;;;;;;;1.80;nan;96482.84;4964501;28;20366;-70
2021/01/14 07:24:18;;;;;;;3.97;2.35;;;;;;;1.88;nan;96490.31;4968001;28;20214;-69
2021/01/14 07:26:46;;;;;;;5.88;2.30;;;;;;;1.91;nan;96491.06;4964742;28;20198;-68
2021/01/14 07:29:15;;;;;;;4.05;2.22;;;;;;;1.95;nan;96491.78;4964606;28;20544;-69
2021/01/14 07:31:52;;;;;;;5.60;2.50;;;;;;;1.98;nan;96504.56;4966448;28;20537;-69
2021/01/14 07:34:37;;;;;;;5.20;2.70;;;;;;;1.92;nan;96507.31;4957852;28;20757;-70
2021/01/14 07:37:07;;;;;;;3.50;2.47;;;;;;;1.86;nan;96498.03;4966921;28;20891;-70
2021/01/14 07:39:56;;;;;;;6.90;3.53;;;;;;;1.95;nan;96513.19;4968121;28;20684;-70
2021/01/14 07:42:25;;;;;;;6.63;3.15;;;;;;;1.93;nan;96524.38;4958119;28;20576;-70
2021/01/14 07:44:53;;;;;;;8.75;4.18;;;;;;;1.95;nan;96528.56;4964281;28;20681;-69
2021/01/14 07:47:28;;;;;;;7.80;3.65;;;;;;;1.99;nan;96519.06;4966048;28;20234;-68
2021/01/14 07:49:56;;;;;;;6.30;3.63;;;;;;;2.02;nan;96524.09;4959634;28;20262;-69
2021/01/14 07:52:30;;;;;;;9.57;4.28;;;;;;;1.93;nan;96520.06;4959949;28;20202;-69
2021/01/14 07:54:57;;;;;;;7.40;3.75;;;;;;;1.94;nan;96526.03;4961218;28;20218;-69
2021/01/14 07:57:27;;;;;;;6.07;3.92;;;;;;;1.92;nan;96518.38;4966652;28;20629;-70
2021/01/14 07:59:57;;;;;;;4.90;3.85;;;;;;;1.81;nan;96497.34;4960510;28;20257;-71
2021/01/14 08:02:24;;;;;;;6.05;3.50;;;;;;;1.97;nan;96516.53;4961677;28;20246;-72
2021/01/14 08:04:53;;;;;;;9.93;3.50;;;;;;;1.99;nan;96513.94;4968089;28;20222;-73
2021/01/14 08:07:27;;;;;;;8.05;4.28;;;;;;;2.06;nan;96507.72;4966861;28;20206;-71
2021/01/14 08:09:56;;;;;;;8.30;4.53;;;;;;;2.06;nan;96516.25;4964153;28;20341;-72
2021/01/14 08:12:28;;;;;;;7.05;3.70;;;;;;;2.05;nan;96518.88;4960874;28;20325;-73
2021/01/14 08:14:55;;;;;;;7.10;3.75;;;;;;;2.05;nan;96519.69;4967527;28;20624;-72
2021/01/14 08:17:24;;;;;;;6.95;3.22;;;;;;;1.96;nan;96525.13;4963426;28;20591;-72
2021/01/14 08:19:52;;;;;;;9.38;2.75;;;;;;;1.99;nan;96519.88;4959987;28;20302;-72
2021/01/14 08:22:18;;;;;;;3.60;2.90;;;;;;;2.07;nan;96528.19;4963241;28;20685;-71
2021/01/14 08:24:53;;;;;;;4.70;3.05;;;;;;;2.11;nan;96537.50;4966515;28;20310;-72
2021/01/14 08:27:29;;;;;;;6.05;2.88;;;;;;;2.11;nan;96534.06;4957347;28;20321;-73
2021/01/14 08:30:04;;;;;;;5.85;2.85;;;;;;;2.10;nan;96538.38;4964436;28;20320;-73
2021/01/14 08:32:42;;;;;;;7.45;3.13;;;;;;;2.23;nan;96544.84;4963310;28;20261;-73
2021/01/14 08:35:23;;;;;;;4.88;2.70;;;;;;;2.31;nan;96558.28;4970017;28;20301;-72
2021/01/14 08:37:52;;;;;;;15.50;3.13;;;;;;;2.16;nan;96540.75;4965111;28;20583;-72
2021/01/14 08:40:25;;;;;;;9.68;2.63;;;;;;;2.01;nan;96545.50;4963487;28;20710;-71
2021/01/14 08:43:04;;;;;;;3.25;2.25;;;;;;;2.20;nan;96560.31;4967001;28;20241;-72
2021/01/14 08:45:32;;;;;;;4.05;2.35;;;;;;;2.25;nan;96548.19;4968182;28;20649;-72
2021/01/14 08:48:02;;;;;;;3.65;2.53;;;;;;;2.22;nan;96558.53;4965375;28;20214;-72
2021/01/14 08:50:41;;;;;;;2.97;2.30;;;;;;;2.23;nan;96560.22;4959637;28;20257;-72
2021/01/14 08:53:09;;;;;;;5.90;2.25;;;;;;;2.24;nan;96559.34;4965078;28;20282;-71
2021/01/14 08:55:38;;;;;;;5.55;2.00;;;;;;;2.22;nan;96561.09;4967492;28;20640;-72
2021/01/14 08:58:07;;;;;;;41.45;15.13;;;;;;;2.08;nan;96552.13;4966253;28;20749;-72
2021/01/14 09:00:36;;;;;;;6.22;3.10;;;;;;;2.08;nan;96565.81;4962126;28;20612;-71
2021/01/14 09:03:05;;;;;;;4.15;1.92;;;;;;;2.03;nan;96566.81;4966796;28;20562;-71
2021/01/14 09:05:32;;;;;;;5.38;2.28;;;;;;;2.03;nan;96570.25;4962016;28;20712;-72
2021/01/14 09:08:06;;;;;;;3.72;2.90;;;;;;;2.07;nan;96574.38;4955655;28;20701;-72
2021/01/14 09:10:45;;;;;;;8.88;1.75;;;;;;;2.13;nan;96578.53;4966672;28;20668;-72
2021/01/14 09:13:14;;;;;;;4.43;1.75;;;;;;;2.12;nan;96587.06;4964631;28;20302;-73
2021/01/14 09:15:41;;;;;;;6.07;2.60;;;;;;;2.10;nan;96578.59;4967230;28;20569;-73
2021/01/14 09:18:09;;;;;;;5.68;2.50;;;;;;;2.23;nan;96583.34;4962377;28;20644;-71
2021/01/14 09:20:36;;;;;;;10.15;3.83;;;;;;;2.30;nan;96587.41;4966278;28;20634;-73
2021/01/14 09:23:21;;;;;;;6.63;3.10;;;;;;;2.33;nan;96587.28;4963629;28;20237;-73
2021/01/14 09:25:50;;;;;;;3.85;2.30;;;;;;;2.31;nan;96594.22;4966652;28;20285;-73
2021/01/14 09:28:21;;;;;;;20.98;9.07;;;;;;;2.22;nan;96599.59;4964108;28;20660;-71
2021/01/14 09:30:54;;;;;;;16.42;5.68;;;;;;;2.26;nan;96603.78;4961692;28;20325;-69
2021/01/14 09:33:25;;;;;;;9.13;2.55;;;;;;;2.31;nan;96617.31;4963120;28;20645;-70
2021/01/14 09:36:05;;;;;;;4.13;2.40;;;;;;;2.42;nan;96622.97;4963959;28;20780;-70
2021/01/14 09:38:46;;;;;;;4.07;2.45;;;;;;;2.47;nan;96623.66;4964272;28;20495;-69
2021/01/14 09:41:23;;;;;;;8.48;2.80;;;;;;;2.46;nan;96633.97;4963461;28;20839;-70
2021/01/14 09:43:56;;;;;;;3.22;2.05;;;;;;;2.40;nan;96640.16;4961127;28;20613;-70
2021/01/14 09:46:25;;;;;;;2.55;1.63;;;;;;;2.41;nan;96640.97;4964986;28;20632;-70
2021/01/14 09:49:05;;;;;;;2.67;1.95;;;;;;;2.46;nan;96650.25;4964720;28;20226;-70
2021/01/14 09:51:33;;;;;;;8.13;2.60;;;;;;;2.49;nan;96649.31;4965008;28;20581;-70
2021/01/14 09:54:00;;;;;;;4.32;2.40;;;;;;;2.40;nan;96640.16;4960989;28;20349;-70
2021/01/14 09:56:34;;;;;;;5.38;3.00;;;;;;;2.33;nan;96641.22;4964798;28;20556;-69
2021/01/14 09:59:07;;;;;;;12.55;4.45;;;;;;;2.16;nan;96640.88;4966331;28;20693;-69
2021/01/14 10:01:37;;;;;;;10.73;2.60;;;;;;;1.90;nan;96640.75;4964929;28;20225;-69
2021/01/14 10:04:09;;;;;;;8.50;3.20;;;;;;;1.73;nan;96640.38;4966576;28;20608;-70
2021/01/14 10:06:40;;;;;;;3.42;2.28;;;;;;;1.49;nan;96635.88;4960428;28;20606;-70
2021/01/14 10:09:09;;;;;;;7.95;3.15;;;;;;;1.46;nan;96633.41;4962956;28;20230;-70
2021/01/14 10:11:37;;;;;;;7.90;3.35;;;;;;;1.63;nan;96651.75;4962489;28;20522;-73
2021/01/14 10:14:05;;;;;;;7.68;3.47;;;;;;;1.92;nan;96649.25;4962868;28;20218;-71
2021/01/14 10:16:36;;;;;;;7.43;2.67;;;;;;;2.17;nan;96655.38;4969071;28;20608;-70
2021/01/14 10:19:15;;;;;;;4.30;2.58;;;;;;;2.26;nan;96646.56;4962326;28;20754;-71
2021/01/14 10:21:44;;;;;;;3.28;2.28;;;;;;;2.43;nan;96649.50;4965665;28;20622;-70
2021/01/14 10:24:22;;;;;;;3.20;2.10;;;;;;;2.52;nan;96626.94;4963019;28;20711;-70
2021/01/14 10:26:49;;;;;;;3.42;2.10;;;;;;;2.61;nan;96636.94;4966571;28;20205;-69
2021/01/14 10:29:30;;;;;;;3.10;2.00;;;;;;;2.43;nan;96637.47;4958143;28;20226;-70
2021/01/14 10:32:02;;;;;;;5.32;2.45;;;;;;;2.45;nan;96638.28;4964845;28;20508;-71
2021/01/14 10:34:38;;;;;;;4.28;2.40;;;;;;;2.46;nan;96639.97;4964037;28;20689;-70
2021/01/14 10:37:05;;;;;;;17.52;8.40;;;;;;;2.56;nan;96661.91;4958690;28;20658;-70
2021/01/14 10:39:38;;;;;;;8.13;3.20;;;;;;;2.57;nan;96661.03;4962873;28;20869;-70
2021/01/14 10:42:31;;;;;;;12.68;2.75;;;;;;;2.72;nan;96663.13;4960478;28;20286;-70
2021/01/14 10:45:00;;;;;;;6.45;2.35;;;;;;;2.85;nan;96664.44;4966723;28;20244;-70
2021/01/14 10:47:27;;;;;;;7.10;2.95;;;;;;;2.91;nan;96665.97;4968220;28;20577;-69
2021/01/14 10:49:54;;;;;;;8.63;2.78;;;;;;;2.85;nan;96674.72;4966064;28;20226;-71
2021/01/14 10:52:27;;;;;;;4.35;3.00;;;;;;;2.82;nan;96659.41;4963561;28;20261;-70
2021/01/14 10:54:58;;;;;;;4.18;2.85;;;;;;;2.89;nan;96681.47;4965933;28;20718;-71
2021/01/14 10:57:44;;;;;;;6.85;2.67;;;;;;;2.95;nan;96670.13;4966194;28;20784;-73
2021/01/14 11:00:16;;;;;;;7.20;3.03;;;;;;;2.80;nan;96674.00;4969461;28;20266;-73
2021/01/14 11:02:45;;;;;;;7.70;3.75;;;;;;;2.68;nan;96661.56;4965603;28;20313;-73
2021/01/14 11:05:13;;;;;;;7.28;3.13;;;;;;;2.65;nan;96666.78;4965824;28;20606;-73
2021/01/14 11:07:40;;;;;;;6.10;2.90;;;;;;;2.70;nan;96671.75;4965949;28;20204;-72
2021/01/14 11:10:08;;;;;;;8.07;3.90;;;;;;;2.76;nan;96662.16;4968328;28;20230;-73
2021/01/14 11:12:55;;;;;;;7.65;3.70;;;;;;;2.83;nan;96660.22;4966897;28;20634;-74
2021/01/14 11:15:23;;;;;;;7.60;3.10;;;;;;;2.81;nan;96662.00;4967415;28;20656;-73
2021/01/14 11:17:49;;;;;;;8.88;4.22;;;;;;;2.83;nan;96663.66;4970003;28;20733;-73
2021/01/14 11:20:16;;;;;;;8.00;3.67;;;;;;;2.84;nan;96672.19;4967726;28;20312;-73
2021/01/14 11:22:43;;;;;;;10.55;4.25;;;;;;;2.81;nan;96664.59;4964523;28;20237;-73
2021/01/14 11:25:15;;;;;;;18.17;4.63;;;;;;;2.83;nan;96655.09;4969454;28;20616;-73
2021/01/14 11:27:42;;;;;;;9.90;4.20;;;;;;;2.92;nan;96649.66;4968142;28;20747;-72
2021/01/14 11:30:09;;;;;;;9.35;4.93;;;;;;;2.83;nan;96653.38;4965601;28;20235;-73
2021/01/14 11:32:37;;;;;;;9.63;4.53;;;;;;;2.84;nan;96661.91;4969890;28;20260;-73
2021/01/14 11:35:04;;;;;;;9.50;4.57;;;;;;;2.90;nan;96652.28;4966219;28;20221;-73
2021/01/14 11:37:31;;;;;;;8.57;4.50;;;;;;;2.73;nan;96633.16;4962490;28;20282;-73
2021/01/14 11:39:58;;;;;;;10.05;4.95;;;;;;;2.88;nan;96655.78;4965181;28;20312;-74
2021/01/14 11:42:26;;;;;;;7.35;4.22;;;;;;;2.93;nan;96662.47;4963139;28;20194;-72
2021/01/14 11:44:54;;;;;;;13.68;6.13;;;;;;;3.01;nan;96655.34;4957329;28;20256;-73
2021/01/14 11:47:20;;;;;;;7.03;4.18;;;;;;;3.05;nan;96656.94;4959341;28;20298;-73
2021/01/14 11:49:48;;;;;;;18.13;5.00;;;;;;;3.05;nan;96649.25;4968354;28;20545;-72
2021/01/14 11:52:16;;;;;;;10.60;4.38;;;;;;;3.02;nan;96649.31;4958698;28;20204;-73
2021/01/14 11:54:43;;;;;;;7.85;4.07;;;;;;;3.01;nan;96647.63;4963266;28;20240;-72
2021/01/14 11:57:10;;;;;;;13.63;4.75;;;;;;;2.97;nan;96640.94;4969569;28;20298;-73
2021/01/14 11:59:37;;;;;;;7.57;2.90;;;;;;;2.89;nan;96640.34;4964518;28;20749;-72
2021/01/14 12:02:04;;;;;;;8.77;3.00;;;;;;;2.88;nan;96630.91;4963527;28;20728;-73
2021/01/14 12:04:37;;;;;;;14.02;2.88;;;;;;;3.00;nan;96637.44;4971328;28;20509;-73
2021/01/14 12:07:04;;;;;;;15.27;3.40;;;;;;;2.98;nan;96634.91;4967799;28;20205;-74
2021/01/14 12:09:31;;;;;;;193.10;74.32;;;;;;;2.92;nan;96627.38;4964945;28;20555;-73
2021/01/14 12:11:58;;;;;;;45.00;18.50;;;;;;;3.00;nan;96630.53;4964770;28;20259;-73
2021/01/14 12:14:25;;;;;;;11.48;5.18;;;;;;;3.06;nan;96629.50;4972204;28;20249;-71